sensor_id;sensor_type;location;lat;lon;timestamp;temperature;humidity
30473;DHT22;17263;48.160;11.452;2023-05-29T00:00:22;13.00;99.90
30473;DHT22;17263;48.160;11.452;2023-05-29T00:02:49;12.90;99.90
30473;DHT22;17263;48.160;11.452;2023-05-29T00:05:15;12.90;99.90
30473;DHT22;17263;48.160;11.452;2023-05-29T00:07:42;12.90;99.90
30473;DHT22;17263;48.160;11.452;2023-05-29T00:10:09;12.90;99.90
30473;DHT22;17263;48.160;11.452;2023-05-29T00:12:36;12.80;99.90
30473;DHT22;17263;48.160;11.452;2023-05-29T00:15:03;12.80;99.90
30473;DHT22;17263;48.160;11.452;2023-05-29T00:17:30;12.80;99.90
30473;DHT22;17263;48.160;11.452;2023-05-29T00:19:58;12.80;99.90
30473;DHT22;17263;48.160;11.452;2023-05-29T00:22:25;12.80;99.90
30473;DHT22;17263;48.160;11.452;2023-05-29T00:24:54;12.70;99.90
30473;DHT22;17263;48.160;11.452;2023-05-29T00:27:20;12.70;99.90
30473;DHT22;17263;48.160;11.452;2023-05-29T00:29:46;12.70;99.90
30473;DHT22;17263;48.160;11.452;2023-05-29T00:32:12;12.70;99.90
30473;DHT22;17263;48.160;11.452;2023-05-29T00:34:38;12.70;99.90
30473;DHT22;17263;48.160;11.452;2023-05-29T00:37:04;12.70;99.90
30473;DHT22;17263;48.160;11.452;2023-05-29T00:39:31;12.70;99.90
30473;DHT22;17263;48.160;11.452;2023-05-29T00:41:57;12.70;99.90
30473;DHT22;17263;48.160;11.452;2023-05-29T00:44:23;12.60;99.90
30473;DHT22;17263;48.160;11.452;2023-05-29T00:46:52;12.60;99.90
30473;DHT22;17263;48.160;11.452;2023-05-29T00:49:20;12.50;99.90
30473;DHT22;17263;48.160;11.452;2023-05-29T00:51:48;12.50;99.90
30473;DHT22;17263;48.160;11.452;2023-05-29T00:54:20;12.50;99.90
30473;DHT22;17263;48.160;11.452;2023-05-29T00:56:47;12.50;99.90
30473;DHT22;17263;48.160;11.452;2023-05-29T00:59:13;12.50;99.90
30473;DHT22;17263;48.160;11.452;2023-05-29T01:01:40;12.40;99.90
30473;DHT22;17263;48.160;11.452;2023-05-29T01:04:10;12.40;99.90
30473;DHT22;17263;48.160;11.452;2023-05-29T01:06:38;12.40;99.90
30473;DHT22;17263;48.160;11.452;2023-05-29T01:09:05;12.30;99.90
30473;DHT22;17263;48.160;11.452;2023-05-29T01:11:35;12.30;99.90
30473;DHT22;17263;48.160;11.452;2023-05-29T01:14:06;12.30;99.90
30473;DHT22;17263;48.160;11.452;2023-05-29T01:19:28;12.20;99.90
30473;DHT22;17263;48.160;11.452;2023-05-29T01:22:12;12.20;99.90
30473;DHT22;17263;48.160;11.452;2023-05-29T01:24:49;12.10;99.90
30473;DHT22;17263;48.160;11.452;2023-05-29T01:27:24;12.10;99.90
30473;DHT22;17263;48.160;11.452;2023-05-29T01:29:52;12.10;99.90
30473;DHT22;17263;48.160;11.452;2023-05-29T01:32:20;12.10;99.90
30473;DHT22;17263;48.160;11.452;2023-05-29T01:34:47;12.00;99.90
30473;DHT22;17263;48.160;11.452;2023-05-29T01:37:13;12.00;99.90
30473;DHT22;17263;48.160;11.452;2023-05-29T01:39:39;12.00;99.90
30473;DHT22;17263;48.160;11.452;2023-05-29T01:42:06;12.00;99.90
30473;DHT22;17263;48.160;11.452;2023-05-29T01:44:33;12.00;99.90
30473;DHT22;17263;48.160;11.452;2023-05-29T01:46:59;11.90;99.90
30473;DHT22;17263;48.160;11.452;2023-05-29T01:49:26;11.90;99.90
30473;DHT22;17263;48.160;11.452;2023-05-29T01:51:53;11.90;99.90
30473;DHT22;17263;48.160;11.452;2023-05-29T01:54:19;11.90;99.90
30473;DHT22;17263;48.160;11.452;2023-05-29T01:56:46;11.90;99.90
30473;DHT22;17263;48.160;11.452;2023-05-29T01:59:13;11.80;99.90
30473;DHT22;17263;48.160;11.452;2023-05-29T02:01:39;11.80;99.90
30473;DHT22;17263;48.160;11.452;2023-05-29T02:04:05;11.90;99.90
30473;DHT22;17263;48.160;11.452;2023-05-29T02:06:31;11.80;99.90
30473;DHT22;17263;48.160;11.452;2023-05-29T02:08:59;11.80;99.90
30473;DHT22;17263;48.160;11.452;2023-05-29T02:11:25;11.80;99.90
30473;DHT22;17263;48.160;11.452;2023-05-29T02:13:52;11.80;99.90
30473;DHT22;17263;48.160;11.452;2023-05-29T02:16:18;11.80;99.90
30473;DHT22;17263;48.160;11.452;2023-05-29T02:18:49;11.80;99.90
30473;DHT22;17263;48.160;11.452;2023-05-29T02:21:15;11.80;99.90
30473;DHT22;17263;48.160;11.452;2023-05-29T02:23:41;11.80;99.90
30473;DHT22;17263;48.160;11.452;2023-05-29T02:26:07;11.80;99.90
30473;DHT22;17263;48.160;11.452;2023-05-29T02:28:33;11.80;99.90
30473;DHT22;17263;48.160;11.452;2023-05-29T02:30:59;11.80;99.90
30473;DHT22;17263;48.160;11.452;2023-05-29T02:33:25;11.70;99.90
30473;DHT22;17263;48.160;11.452;2023-05-29T02:35:51;11.70;99.90
30473;DHT22;17263;48.160;11.452;2023-05-29T02:38:17;11.60;99.90
30473;DHT22;17263;48.160;11.452;2023-05-29T02:40:43;11.60;99.90
30473;DHT22;17263;48.160;11.452;2023-05-29T02:43:13;11.60;99.90
30473;DHT22;17263;48.160;11.452;2023-05-29T02:45:40;11.50;99.90
30473;DHT22;17263;48.160;11.452;2023-05-29T02:48:06;11.50;99.90
30473;DHT22;17263;48.160;11.452;2023-05-29T02:50:33;11.50;99.90
30473;DHT22;17263;48.160;11.452;2023-05-29T02:52:59;11.40;99.90
30473;DHT22;17263;48.160;11.452;2023-05-29T02:55:25;11.40;99.90
30473;DHT22;17263;48.160;11.452;2023-05-29T02:57:51;11.30;99.90
30473;DHT22;17263;48.160;11.452;2023-05-29T03:00:20;11.20;99.90
30473;DHT22;17263;48.160;11.452;2023-05-29T03:02:46;11.20;99.90
30473;DHT22;17263;48.160;11.452;2023-05-29T03:05:12;11.20;99.90
30473;DHT22;17263;48.160;11.452;2023-05-29T03:07:38;11.20;99.90
30473;DHT22;17263;48.160;11.452;2023-05-29T03:10:04;11.20;99.90
30473;DHT22;17263;48.160;11.452;2023-05-29T03:12:31;11.20;99.90
30473;DHT22;17263;48.160;11.452;2023-05-29T03:14:57;11.20;99.90
30473;DHT22;17263;48.160;11.452;2023-05-29T03:17:23;11.20;99.90
30473;DHT22;17263;48.160;11.452;2023-05-29T03:19:49;11.20;99.90
30473;DHT22;17263;48.160;11.452;2023-05-29T03:22:15;11.20;99.90
30473;DHT22;17263;48.160;11.452;2023-05-29T03:24:41;11.20;99.90
30473;DHT22;17263;48.160;11.452;2023-05-29T03:27:07;11.20;99.90
30473;DHT22;17263;48.160;11.452;2023-05-29T03:29:33;11.20;99.90
30473;DHT22;17263;48.160;11.452;2023-05-29T03:31:59;11.10;99.90
30473;DHT22;17263;48.160;11.452;2023-05-29T03:34:25;11.10;99.90
30473;DHT22;17263;48.160;11.452;2023-05-29T03:36:51;11.00;99.90
30473;DHT22;17263;48.160;11.452;2023-05-29T03:39:17;11.10;99.90
30473;DHT22;17263;48.160;11.452;2023-05-29T03:41:43;11.10;99.90
30473;DHT22;17263;48.160;11.452;2023-05-29T03:44:09;11.10;99.90
30473;DHT22;17263;48.160;11.452;2023-05-29T03:46:35;11.20;99.90
30473;DHT22;17263;48.160;11.452;2023-05-29T03:49:01;11.20;99.90
30473;DHT22;17263;48.160;11.452;2023-05-29T03:51:27;11.20;99.90
30473;DHT22;17263;48.160;11.452;2023-05-29T03:53:53;11.20;99.90
30473;DHT22;17263;48.160;11.452;2023-05-29T03:56:19;11.20;99.90
30473;DHT22;17263;48.160;11.452;2023-05-29T03:58:45;11.20;99.90
30473;DHT22;17263;48.160;11.452;2023-05-29T04:01:11;11.10;99.90
30473;DHT22;17263;48.160;11.452;2023-05-29T04:03:37;11.10;99.90
30473;DHT22;17263;48.160;11.452;2023-05-29T04:06:03;11.20;99.90
30473;DHT22;17263;48.160;11.452;2023-05-29T04:08:30;11.20;99.90
30473;DHT22;17263;48.160;11.452;2023-05-29T04:10:56;11.30;99.90
30473;DHT22;17263;48.160;11.452;2023-05-29T04:13:22;11.30;99.90
30473;DHT22;17263;48.160;11.452;2023-05-29T04:15:48;11.40;99.90
30473;DHT22;17263;48.160;11.452;2023-05-29T04:18:14;11.40;99.90
30473;DHT22;17263;48.160;11.452;2023-05-29T04:20:40;11.50;99.90
30473;DHT22;17263;48.160;11.452;2023-05-29T04:23:06;11.50;99.90
30473;DHT22;17263;48.160;11.452;2023-05-29T04:25:32;11.50;99.90
30473;DHT22;17263;48.160;11.452;2023-05-29T04:28:00;11.60;99.90
30473;DHT22;17263;48.160;11.452;2023-05-29T04:30:28;11.70;99.90
30473;DHT22;17263;48.160;11.452;2023-05-29T04:32:54;11.80;99.90
30473;DHT22;17263;48.160;11.452;2023-05-29T04:35:20;11.90;99.90
30473;DHT22;17263;48.160;11.452;2023-05-29T04:37:47;12.00;99.90
30473;DHT22;17263;48.160;11.452;2023-05-29T04:40:13;12.00;99.90
30473;DHT22;17263;48.160;11.452;2023-05-29T04:42:43;12.10;99.90
30473;DHT22;17263;48.160;11.452;2023-05-29T04:45:11;12.20;99.90
30473;DHT22;17263;48.160;11.452;2023-05-29T04:47:37;12.30;99.90
30473;DHT22;17263;48.160;11.452;2023-05-29T04:50:11;12.50;99.90
30473;DHT22;17263;48.160;11.452;2023-05-29T04:52:37;12.50;99.90
30473;DHT22;17263;48.160;11.452;2023-05-29T04:55:04;12.70;99.90
30473;DHT22;17263;48.160;11.452;2023-05-29T04:57:30;12.90;99.90
30473;DHT22;17263;48.160;11.452;2023-05-29T04:59:56;13.20;99.90
30473;DHT22;17263;48.160;11.452;2023-05-29T05:02:23;13.40;99.90
30473;DHT22;17263;48.160;11.452;2023-05-29T05:04:49;13.90;99.90
30473;DHT22;17263;48.160;11.452;2023-05-29T05:07:16;14.60;99.90
30473;DHT22;17263;48.160;11.452;2023-05-29T05:09:42;15.50;99.90
30473;DHT22;17263;48.160;11.452;2023-05-29T05:12:08;16.20;99.90
30473;DHT22;17263;48.160;11.452;2023-05-29T05:14:34;17.00;99.90
30473;DHT22;17263;48.160;11.452;2023-05-29T05:17:00;17.70;99.90
30473;DHT22;17263;48.160;11.452;2023-05-29T05:19:26;18.30;99.90
30473;DHT22;17263;48.160;11.452;2023-05-29T05:21:52;18.70;99.90
30473;DHT22;17263;48.160;11.452;2023-05-29T05:24:18;19.30;99.90
30473;DHT22;17263;48.160;11.452;2023-05-29T05:26:44;19.80;99.90
30473;DHT22;17263;48.160;11.452;2023-05-29T05:29:10;20.10;99.90
30473;DHT22;17263;48.160;11.452;2023-05-29T05:31:36;20.30;99.90
30473;DHT22;17263;48.160;11.452;2023-05-29T05:34:02;20.90;99.90
30473;DHT22;17263;48.160;11.452;2023-05-29T05:36:28;21.20;98.00
30473;DHT22;17263;48.160;11.452;2023-05-29T05:38:54;21.30;96.80
30473;DHT22;17263;48.160;11.452;2023-05-29T05:41:20;21.60;96.60
30473;DHT22;17263;48.160;11.452;2023-05-29T05:43:46;22.00;95.20
30473;DHT22;17263;48.160;11.452;2023-05-29T05:46:12;22.30;94.60
30473;DHT22;17263;48.160;11.452;2023-05-29T05:48:40;22.40;92.90
30473;DHT22;17263;48.160;11.452;2023-05-29T05:51:06;22.60;91.90
30473;DHT22;17263;48.160;11.452;2023-05-29T05:53:32;22.80;91.30
30473;DHT22;17263;48.160;11.452;2023-05-29T05:55:58;23.00;91.40
30473;DHT22;17263;48.160;11.452;2023-05-29T05:58:25;23.40;91.50
30473;DHT22;17263;48.160;11.452;2023-05-29T06:00:51;23.50;90.10
30473;DHT22;17263;48.160;11.452;2023-05-29T06:03:18;23.80;86.80
30473;DHT22;17263;48.160;11.452;2023-05-29T06:05:44;23.90;87.60
30473;DHT22;17263;48.160;11.452;2023-05-29T06:08:10;24.10;85.50
30473;DHT22;17263;48.160;11.452;2023-05-29T06:10:36;24.40;82.90
30473;DHT22;17263;48.160;11.452;2023-05-29T06:13:02;24.50;83.30
30473;DHT22;17263;48.160;11.452;2023-05-29T06:15:28;24.80;84.90
30473;DHT22;17263;48.160;11.452;2023-05-29T06:17:54;24.80;79.10
30473;DHT22;17263;48.160;11.452;2023-05-29T06:20:21;24.80;81.00
30473;DHT22;17263;48.160;11.452;2023-05-29T06:22:47;24.80;79.10
30473;DHT22;17263;48.160;11.452;2023-05-29T06:25:19;24.90;78.00
30473;DHT22;17263;48.160;11.452;2023-05-29T06:27:45;25.10;75.00
30473;DHT22;17263;48.160;11.452;2023-05-29T06:30:12;25.10;75.70
30473;DHT22;17263;48.160;11.452;2023-05-29T06:32:38;25.30;73.50
30473;DHT22;17263;48.160;11.452;2023-05-29T06:35:05;25.50;74.40
30473;DHT22;17263;48.160;11.452;2023-05-29T06:37:32;25.80;73.20
30473;DHT22;17263;48.160;11.452;2023-05-29T06:39:58;25.80;71.60
30473;DHT22;17263;48.160;11.452;2023-05-29T06:42:24;26.10;72.10
30473;DHT22;17263;48.160;11.452;2023-05-29T06:44:50;26.10;70.00
30473;DHT22;17263;48.160;11.452;2023-05-29T06:47:16;26.10;69.80
30473;DHT22;17263;48.160;11.452;2023-05-29T06:49:42;26.30;70.90
30473;DHT22;17263;48.160;11.452;2023-05-29T06:52:08;26.70;68.10
30473;DHT22;17263;48.160;11.452;2023-05-29T06:54:34;27.00;69.30
30473;DHT22;17263;48.160;11.452;2023-05-29T06:57:00;27.50;65.70
30473;DHT22;17263;48.160;11.452;2023-05-29T06:59:26;27.30;64.30
30473;DHT22;17263;48.160;11.452;2023-05-29T07:01:52;27.30;62.50
30473;DHT22;17263;48.160;11.452;2023-05-29T07:04:18;27.10;62.10
30473;DHT22;17263;48.160;11.452;2023-05-29T07:06:44;26.90;61.70
30473;DHT22;17263;48.160;11.452;2023-05-29T07:09:10;27.10;60.80
30473;DHT22;17263;48.160;11.452;2023-05-29T07:11:38;26.80;61.30
30473;DHT22;17263;48.160;11.452;2023-05-29T07:14:04;26.50;64.40
30473;DHT22;17263;48.160;11.452;2023-05-29T07:16:30;26.50;64.20
30473;DHT22;17263;48.160;11.452;2023-05-29T07:18:56;26.80;63.40
30473;DHT22;17263;48.160;11.452;2023-05-29T07:21:22;27.00;64.30
30473;DHT22;17263;48.160;11.452;2023-05-29T07:23:48;27.40;61.30
30473;DHT22;17263;48.160;11.452;2023-05-29T07:26:14;27.40;62.60
30473;DHT22;17263;48.160;11.452;2023-05-29T07:28:40;27.60;62.70
30473;DHT22;17263;48.160;11.452;2023-05-29T07:31:06;27.90;61.00
30473;DHT22;17263;48.160;11.452;2023-05-29T07:33:32;27.90;60.60
30473;DHT22;17263;48.160;11.452;2023-05-29T07:35:58;28.00;59.90
30473;DHT22;17263;48.160;11.452;2023-05-29T07:38:24;28.20;59.50
30473;DHT22;17263;48.160;11.452;2023-05-29T07:40:50;28.20;58.80
30473;DHT22;17263;48.160;11.452;2023-05-29T07:43:16;28.40;61.20
30473;DHT22;17263;48.160;11.452;2023-05-29T07:45:42;28.60;58.60
30473;DHT22;17263;48.160;11.452;2023-05-29T07:48:08;28.40;58.60
30473;DHT22;17263;48.160;11.452;2023-05-29T07:50:34;28.20;58.40
30473;DHT22;17263;48.160;11.452;2023-05-29T07:53:00;28.10;59.80
30473;DHT22;17263;48.160;11.452;2023-05-29T07:55:26;28.30;59.30
30473;DHT22;17263;48.160;11.452;2023-05-29T07:57:52;28.30;60.00
30473;DHT22;17263;48.160;11.452;2023-05-29T08:00:18;28.40;59.80
30473;DHT22;17263;48.160;11.452;2023-05-29T08:02:44;28.20;58.40
30473;DHT22;17263;48.160;11.452;2023-05-29T08:05:11;28.20;59.40
30473;DHT22;17263;48.160;11.452;2023-05-29T08:07:38;28.20;60.30
30473;DHT22;17263;48.160;11.452;2023-05-29T08:10:04;28.30;59.30
30473;DHT22;17263;48.160;11.452;2023-05-29T08:12:31;28.40;58.90
30473;DHT22;17263;48.160;11.452;2023-05-29T08:14:57;28.70;58.70
30473;DHT22;17263;48.160;11.452;2023-05-29T08:17:23;28.50;59.30
30473;DHT22;17263;48.160;11.452;2023-05-29T08:19:49;28.50;59.10
30473;DHT22;17263;48.160;11.452;2023-05-29T08:22:15;28.70;59.60
30473;DHT22;17263;48.160;11.452;2023-05-29T08:24:41;29.00;56.90
30473;DHT22;17263;48.160;11.452;2023-05-29T08:27:08;29.10;58.00
30473;DHT22;17263;48.160;11.452;2023-05-29T08:29:34;29.00;57.10
30473;DHT22;17263;48.160;11.452;2023-05-29T08:32:01;29.10;58.10
30473;DHT22;17263;48.160;11.452;2023-05-29T08:34:28;29.00;57.70
30473;DHT22;17263;48.160;11.452;2023-05-29T08:36:54;29.10;56.60
30473;DHT22;17263;48.160;11.452;2023-05-29T08:39:20;29.20;56.30
30473;DHT22;17263;48.160;11.452;2023-05-29T08:41:59;29.40;55.80
30473;DHT22;17263;48.160;11.452;2023-05-29T08:44:30;29.10;56.50
30473;DHT22;17263;48.160;11.452;2023-05-29T08:46:56;28.70;57.70
30473;DHT22;17263;48.160;11.452;2023-05-29T08:49:23;28.50;57.50
30473;DHT22;17263;48.160;11.452;2023-05-29T08:52:11;28.50;57.10
30473;DHT22;17263;48.160;11.452;2023-05-29T08:54:38;28.40;58.30
30473;DHT22;17263;48.160;11.452;2023-05-29T08:57:05;28.30;58.30
30473;DHT22;17263;48.160;11.452;2023-05-29T08:59:33;28.40;58.90
30473;DHT22;17263;48.160;11.452;2023-05-29T09:02:00;28.50;57.70
30473;DHT22;17263;48.160;11.452;2023-05-29T09:04:28;28.40;57.70
30473;DHT22;17263;48.160;11.452;2023-05-29T09:06:57;28.40;57.80
30473;DHT22;17263;48.160;11.452;2023-05-29T09:09:25;28.40;58.50
30473;DHT22;17263;48.160;11.452;2023-05-29T09:11:53;28.40;58.00
30473;DHT22;17263;48.160;11.452;2023-05-29T09:14:52;28.40;57.70
30473;DHT22;17263;48.160;11.452;2023-05-29T09:17:19;28.10;57.90
30473;DHT22;17263;48.160;11.452;2023-05-29T09:19:45;28.10;59.50
30473;DHT22;17263;48.160;11.452;2023-05-29T09:22:14;28.30;59.20
30473;DHT22;17263;48.160;11.452;2023-05-29T09:24:41;28.70;57.20
30473;DHT22;17263;48.160;11.452;2023-05-29T09:27:08;28.50;57.00
30473;DHT22;17263;48.160;11.452;2023-05-29T09:29:38;28.40;57.00
30473;DHT22;17263;48.160;11.452;2023-05-29T09:32:12;28.30;57.30
30473;DHT22;17263;48.160;11.452;2023-05-29T09:34:38;28.30;57.90
30473;DHT22;17263;48.160;11.452;2023-05-29T09:37:06;28.20;58.30
30473;DHT22;17263;48.160;11.452;2023-05-29T09:39:46;28.30;57.50
30473;DHT22;17263;48.160;11.452;2023-05-29T09:42:14;28.30;57.70
30473;DHT22;17263;48.160;11.452;2023-05-29T09:44:41;28.10;57.80
30473;DHT22;17263;48.160;11.452;2023-05-29T09:47:07;28.20;57.20
30473;DHT22;17263;48.160;11.452;2023-05-29T09:49:33;28.20;56.90
30473;DHT22;17263;48.160;11.452;2023-05-29T09:52:00;28.10;57.00
30473;DHT22;17263;48.160;11.452;2023-05-29T09:54:27;28.00;56.40
30473;DHT22;17263;48.160;11.452;2023-05-29T09:56:58;27.90;56.30
30473;DHT22;17263;48.160;11.452;2023-05-29T09:59:24;27.90;56.30
30473;DHT22;17263;48.160;11.452;2023-05-29T10:02:04;27.70;55.60
30473;DHT22;17263;48.160;11.452;2023-05-29T10:04:39;27.50;56.60
30473;DHT22;17263;48.160;11.452;2023-05-29T10:07:15;27.20;54.80
30473;DHT22;17263;48.160;11.452;2023-05-29T10:09:47;27.10;55.20
30473;DHT22;17263;48.160;11.452;2023-05-29T10:12:20;26.90;55.90
30473;DHT22;17263;48.160;11.452;2023-05-29T10:14:55;27.00;54.50
30473;DHT22;17263;48.160;11.452;2023-05-29T10:17:25;27.00;54.30
30473;DHT22;17263;48.160;11.452;2023-05-29T10:19:53;26.90;55.30
30473;DHT22;17263;48.160;11.452;2023-05-29T10:22:20;27.00;55.20
30473;DHT22;17263;48.160;11.452;2023-05-29T10:24:50;26.80;55.40
30473;DHT22;17263;48.160;11.452;2023-05-29T10:27:17;26.80;56.20
30473;DHT22;17263;48.160;11.452;2023-05-29T10:29:55;26.70;56.10
30473;DHT22;17263;48.160;11.452;2023-05-29T10:32:59;26.60;56.20
30473;DHT22;17263;48.160;11.452;2023-05-29T10:38:12;26.10;54.30
30473;DHT22;17263;48.160;11.452;2023-05-29T10:40:48;25.90;54.40
30473;DHT22;17263;48.160;11.452;2023-05-29T10:43:32;25.60;54.70
30473;DHT22;17263;48.160;11.452;2023-05-29T10:46:00;25.40;54.80
30473;DHT22;17263;48.160;11.452;2023-05-29T10:50:55;24.80;54.10
30473;DHT22;17263;48.160;11.452;2023-05-29T10:53:27;24.50;55.00
30473;DHT22;17263;48.160;11.452;2023-05-29T10:55:56;24.30;58.50
30473;DHT22;17263;48.160;11.452;2023-05-29T10:58:25;24.00;60.10
30473;DHT22;17263;48.160;11.452;2023-05-29T11:00:53;24.00;61.80
30473;DHT22;17263;48.160;11.452;2023-05-29T11:03:21;24.00;57.70
30473;DHT22;17263;48.160;11.452;2023-05-29T11:05:57;23.90;57.40
30473;DHT22;17263;48.160;11.452;2023-05-29T11:11:33;23.70;58.60
30473;DHT22;17263;48.160;11.452;2023-05-29T11:14:06;23.70;59.80
30473;DHT22;17263;48.160;11.452;2023-05-29T11:19:03;23.50;60.70
30473;DHT22;17263;48.160;11.452;2023-05-29T11:21:53;23.50;61.40
30473;DHT22;17263;48.160;11.452;2023-05-29T11:24:27;23.70;62.60
30473;DHT22;17263;48.160;11.452;2023-05-29T11:26:54;23.70;61.90
30473;DHT22;17263;48.160;11.452;2023-05-29T11:29:22;23.70;60.60
30473;DHT22;17263;48.160;11.452;2023-05-29T11:31:55;23.60;60.30
30473;DHT22;17263;48.160;11.452;2023-05-29T11:34:25;23.50;60.40
30473;DHT22;17263;48.160;11.452;2023-05-29T11:36:53;23.50;59.70
30473;DHT22;17263;48.160;11.452;2023-05-29T11:39:19;23.50;60.20
30473;DHT22;17263;48.160;11.452;2023-05-29T11:41:50;23.50;59.80
30473;DHT22;17263;48.160;11.452;2023-05-29T11:44:16;23.50;60.90
30473;DHT22;17263;48.160;11.452;2023-05-29T11:46:42;23.60;60.60
30473;DHT22;17263;48.160;11.452;2023-05-29T11:49:08;23.50;58.20
30473;DHT22;17263;48.160;11.452;2023-05-29T11:51:34;23.50;60.40
30473;DHT22;17263;48.160;11.452;2023-05-29T11:54:00;23.60;59.80
30473;DHT22;17263;48.160;11.452;2023-05-29T11:56:27;23.60;60.10
30473;DHT22;17263;48.160;11.452;2023-05-29T11:58:54;23.70;60.40
30473;DHT22;17263;48.160;11.452;2023-05-29T12:01:23;23.70;61.50
30473;DHT22;17263;48.160;11.452;2023-05-29T12:03:51;23.70;60.80
30473;DHT22;17263;48.160;11.452;2023-05-29T12:06:30;23.70;60.40
30473;DHT22;17263;48.160;11.452;2023-05-29T12:08:57;23.70;60.50
30473;DHT22;17263;48.160;11.452;2023-05-29T12:11:24;23.80;59.80
30473;DHT22;17263;48.160;11.452;2023-05-29T12:14:00;23.80;59.80
30473;DHT22;17263;48.160;11.452;2023-05-29T12:16:33;23.70;60.40
30473;DHT22;17263;48.160;11.452;2023-05-29T12:19:00;23.70;60.00
30473;DHT22;17263;48.160;11.452;2023-05-29T12:21:27;23.70;60.00
30473;DHT22;17263;48.160;11.452;2023-05-29T12:23:54;23.70;60.20
30473;DHT22;17263;48.160;11.452;2023-05-29T12:26:24;23.60;59.60
30473;DHT22;17263;48.160;11.452;2023-05-29T12:28:52;23.60;58.00
30473;DHT22;17263;48.160;11.452;2023-05-29T12:31:28;23.50;58.00
30473;DHT22;17263;48.160;11.452;2023-05-29T12:34:02;23.50;58.50
30473;DHT22;17263;48.160;11.452;2023-05-29T12:36:28;23.50;58.30
30473;DHT22;17263;48.160;11.452;2023-05-29T12:38:54;23.70;57.30
30473;DHT22;17263;48.160;11.452;2023-05-29T12:41:33;23.70;58.90
30473;DHT22;17263;48.160;11.452;2023-05-29T12:44:02;23.60;57.20
30473;DHT22;17263;48.160;11.452;2023-05-29T12:46:38;23.70;57.50
30473;DHT22;17263;48.160;11.452;2023-05-29T12:49:15;23.50;58.10
30473;DHT22;17263;48.160;11.452;2023-05-29T12:51:42;23.50;59.80
30473;DHT22;17263;48.160;11.452;2023-05-29T12:54:15;23.50;60.60
30473;DHT22;17263;48.160;11.452;2023-05-29T12:56:42;23.50;59.50
30473;DHT22;17263;48.160;11.452;2023-05-29T12:59:09;23.60;60.90
30473;DHT22;17263;48.160;11.452;2023-05-29T13:01:36;23.70;58.90
30473;DHT22;17263;48.160;11.452;2023-05-29T13:04:04;23.70;58.80
30473;DHT22;17263;48.160;11.452;2023-05-29T13:06:34;23.70;57.70
30473;DHT22;17263;48.160;11.452;2023-05-29T13:09:00;23.60;57.80
30473;DHT22;17263;48.160;11.452;2023-05-29T13:11:26;23.50;57.80
30473;DHT22;17263;48.160;11.452;2023-05-29T13:13:52;23.50;59.20
30473;DHT22;17263;48.160;11.452;2023-05-29T13:16:18;23.50;60.40
30473;DHT22;17263;48.160;11.452;2023-05-29T13:18:44;23.60;59.10
30473;DHT22;17263;48.160;11.452;2023-05-29T13:21:10;23.60;58.10
30473;DHT22;17263;48.160;11.452;2023-05-29T13:23:36;23.60;57.00
30473;DHT22;17263;48.160;11.452;2023-05-29T13:26:04;23.50;56.80
30473;DHT22;17263;48.160;11.452;2023-05-29T13:28:31;23.50;57.60
30473;DHT22;17263;48.160;11.452;2023-05-29T13:30:57;23.60;57.20
30473;DHT22;17263;48.160;11.452;2023-05-29T13:33:23;23.50;57.30
30473;DHT22;17263;48.160;11.452;2023-05-29T13:35:49;23.50;57.10
30473;DHT22;17263;48.160;11.452;2023-05-29T13:38:15;23.50;56.20
30473;DHT22;17263;48.160;11.452;2023-05-29T13:40:41;23.40;57.70
30473;DHT22;17263;48.160;11.452;2023-05-29T13:43:07;23.50;56.80
30473;DHT22;17263;48.160;11.452;2023-05-29T13:45:33;23.50;58.40
30473;DHT22;17263;48.160;11.452;2023-05-29T13:47:59;23.50;59.70
30473;DHT22;17263;48.160;11.452;2023-05-29T13:50:25;23.50;60.00
30473;DHT22;17263;48.160;11.452;2023-05-29T13:52:51;23.50;60.40
30473;DHT22;17263;48.160;11.452;2023-05-29T13:55:17;23.40;60.30
30473;DHT22;17263;48.160;11.452;2023-05-29T13:57:43;23.40;61.50
30473;DHT22;17263;48.160;11.452;2023-05-29T14:00:10;23.40;58.80
30473;DHT22;17263;48.160;11.452;2023-05-29T14:02:37;23.40;57.50
30473;DHT22;17263;48.160;11.452;2023-05-29T14:05:04;23.40;58.00
30473;DHT22;17263;48.160;11.452;2023-05-29T14:07:31;23.50;58.70
30473;DHT22;17263;48.160;11.452;2023-05-29T14:09:58;23.40;59.00
30473;DHT22;17263;48.160;11.452;2023-05-29T14:12:24;23.50;60.00
30473;DHT22;17263;48.160;11.452;2023-05-29T14:14:50;23.50;59.70
30473;DHT22;17263;48.160;11.452;2023-05-29T14:17:16;23.50;59.80
30473;DHT22;17263;48.160;11.452;2023-05-29T14:19:42;23.60;59.90
30473;DHT22;17263;48.160;11.452;2023-05-29T14:22:11;23.50;58.50
30473;DHT22;17263;48.160;11.452;2023-05-29T14:24:37;23.50;59.10
30473;DHT22;17263;48.160;11.452;2023-05-29T14:27:03;23.50;59.80
30473;DHT22;17263;48.160;11.452;2023-05-29T14:29:29;23.50;60.90
30473;DHT22;17263;48.160;11.452;2023-05-29T14:31:55;23.50;60.00
30473;DHT22;17263;48.160;11.452;2023-05-29T14:34:21;23.50;60.50
30473;DHT22;17263;48.160;11.452;2023-05-29T14:36:47;23.40;60.80
30473;DHT22;17263;48.160;11.452;2023-05-29T14:39:13;23.40;61.00
30473;DHT22;17263;48.160;11.452;2023-05-29T14:41:39;23.50;58.90
30473;DHT22;17263;48.160;11.452;2023-05-29T14:44:05;23.50;59.20
30473;DHT22;17263;48.160;11.452;2023-05-29T14:46:32;23.40;59.50
30473;DHT22;17263;48.160;11.452;2023-05-29T14:49:01;23.50;60.20
30473;DHT22;17263;48.160;11.452;2023-05-29T14:51:27;23.50;60.80
30473;DHT22;17263;48.160;11.452;2023-05-29T14:53:54;23.40;62.20
30473;DHT22;17263;48.160;11.452;2023-05-29T14:56:20;23.40;61.00
30473;DHT22;17263;48.160;11.452;2023-05-29T14:58:46;23.30;62.10
30473;DHT22;17263;48.160;11.452;2023-05-29T15:01:17;23.20;61.80
30473;DHT22;17263;48.160;11.452;2023-05-29T15:03:43;23.20;62.60
30473;DHT22;17263;48.160;11.452;2023-05-29T15:06:11;23.20;61.80
30473;DHT22;17263;48.160;11.452;2023-05-29T15:08:41;23.20;60.50
30473;DHT22;17263;48.160;11.452;2023-05-29T15:11:09;23.20;60.80
30473;DHT22;17263;48.160;11.452;2023-05-29T15:13:35;23.20;60.70
30473;DHT22;17263;48.160;11.452;2023-05-29T15:16:02;23.20;59.50
30473;DHT22;17263;48.160;11.452;2023-05-29T15:18:29;23.20;59.90
30473;DHT22;17263;48.160;11.452;2023-05-29T15:20:55;23.20;60.60
30473;DHT22;17263;48.160;11.452;2023-05-29T15:23:22;23.20;61.30
30473;DHT22;17263;48.160;11.452;2023-05-29T15:25:49;23.20;61.80
30473;DHT22;17263;48.160;11.452;2023-05-29T15:28:16;23.20;61.80
30473;DHT22;17263;48.160;11.452;2023-05-29T15:30:44;23.10;62.70